Time;durP1;ratioP1;P1;durP2;ratioP2;P2;SDS_P1;SDS_P2;PMS_P1;PMS_P2;Temp;Humidity;BMP_temperature;BMP_pressure;BME280_temperature;BME280_humidity;BME280_pressure;Samples;Min_cycle;Max_cycle;Signal;HPM_P1;HPM_P2
2022/11/14 00:00:28;;;;;;;7.22;5.47;;;11.20;58.30;;;;;;6335701;22;20426;-74
2022/11/14 00:02:54;;;;;;;6.82;5.28;;;11.20;58.10;;;;;;6308807;22;20003;-74
2022/11/14 00:05:20;;;;;;;7.40;5.38;;;11.20;58.20;;;;;;6336824;22;20030;-74
2022/11/14 00:07:53;;;;;;;7.75;5.70;;;11.10;58.30;;;;;;6336322;22;19999;-75
2022/11/14 00:10:21;;;;;;;7.32;5.53;;;11.10;58.20;;;;;;6337179;22;20002;-74
2022/11/14 00:12:47;;;;;;;7.82;6.00;;;11.10;58.20;;;;;;6337116;22;19999;-74
2022/11/14 00:15:14;;;;;;;10.10;5.47;;;11.10;58.30;;;;;;6336853;22;20091;-74
2022/11/14 00:17:43;;;;;;;10.25;5.70;;;11.10;58.40;;;;;;6336827;22;20003;-75
2022/11/14 00:20:14;;;;;;;9.23;6.28;;;11.00;58.60;;;;;;6336486;22;20473;-74
2022/11/14 00:22:39;;;;;;;8.00;5.70;;;11.00;58.60;;;;;;6336823;22;20358;-74
2022/11/14 00:25:07;;;;;;;8.40;5.88;;;11.00;58.60;;;;;;6336533;22;20005;-74
2022/11/14 00:27:34;;;;;;;8.48;5.15;;;11.00;58.60;;;;;;6336664;22;19999;-74
2022/11/14 00:30:01;;;;;;;10.52;6.47;;;11.00;58.60;;;;;;6336721;22;20422;-75
2022/11/14 00:32:29;;;;;;;11.82;7.00;;;11.00;58.80;;;;;;6336375;22;19995;-74
2022/11/14 00:34:55;;;;;;;9.13;5.88;;;11.00;58.90;;;;;;6308253;22;20003;-74
2022/11/14 00:37:21;;;;;;;7.68;5.57;;;10.90;58.90;;;;;;6335727;22;20003;-75
2022/11/14 00:39:49;;;;;;;8.88;6.10;;;10.90;59.30;;;;;;6336501;22;20048;-74
2022/11/14 00:42:15;;;;;;;9.50;6.35;;;10.90;59.10;;;;;;6308705;22;20060;-74
2022/11/14 00:44:41;;;;;;;10.48;7.55;;;10.90;59.00;;;;;;6336467;22;20003;-75
2022/11/14 00:47:07;;;;;;;8.73;6.50;;;10.90;59.10;;;;;;6336155;22;20441;-75
2022/11/14 00:49:34;;;;;;;10.65;6.93;;;10.90;59.10;;;;;;6336359;22;20419;-74
2022/11/14 00:52:00;;;;;;;8.38;6.38;;;10.90;59.20;;;;;;6336461;22;20452;-75
2022/11/14 00:54:26;;;;;;;7.75;5.80;;;11.00;59.20;;;;;;6336068;22;19995;-75
2022/11/14 00:56:52;;;;;;;9.30;6.30;;;11.00;59.20;;;;;;6308609;22;20015;-74
2022/11/14 00:59:18;;;;;;;6.75;5.18;;;11.10;59.20;;;;;;6336398;22;19999;-74
2022/11/14 01:01:44;;;;;;;8.65;6.22;;;11.20;59.10;;;;;;6336056;22;19999;-74
2022/11/14 01:04:10;;;;;;;9.00;6.38;;;11.20;59.00;;;;;;6336232;22;20002;-74
2022/11/14 01:06:35;;;;;;;8.98;6.00;;;11.20;58.90;;;;;;6336237;22;20033;-75
2022/11/14 01:09:01;;;;;;;14.82;6.40;;;11.30;58.90;;;;;;6337158;22;19995;-75
2022/11/14 01:11:27;;;;;;;7.57;5.50;;;11.30;58.80;;;;;;6337671;22;19999;-74
2022/11/14 01:13:53;;;;;;;8.18;6.22;;;11.30;58.80;;;;;;6337278;22;20026;-74
2022/11/14 01:16:19;;;;;;;7.32;5.53;;;11.30;58.70;;;;;;6337866;22;20136;-75
2022/11/14 01:18:44;;;;;;;8.10;5.72;;;11.30;58.60;;;;;;6337890;22;20003;-74
2022/11/14 01:21:12;;;;;;;7.47;5.93;;;11.30;58.50;;;;;;6338037;22;20052;-75
2022/11/14 01:23:38;;;;;;;6.78;5.22;;;11.30;58.50;;;;;;6311034;22;20011;-75
2022/11/14 01:26:11;;;;;;;6.93;5.38;;;11.20;58.60;;;;;;6337939;22;20312;-75
2022/11/14 01:28:38;;;;;;;7.93;4.82;;;11.20;58.60;;;;;;6338056;22;20005;-74
2022/11/14 01:31:17;;;;;;;7.95;5.50;;;11.20;58.60;;;;;;6337926;22;20003;-74
2022/11/14 01:33:44;;;;;;;7.55;5.55;;;11.10;58.70;;;;;;6310068;22;20002;-74
2022/11/14 01:36:10;;;;;;;8.52;5.88;;;11.10;58.70;;;;;;6337807;22;19998;-74
2022/11/14 01:38:37;;;;;;;10.63;6.20;;;11.10;58.70;;;;;;6338202;22;19998;-75
2022/11/14 01:41:03;;;;;;;10.38;7.28;;;11.10;58.90;;;;;;6310446;22;20024;-75
2022/11/14 01:43:38;;;;;;;13.57;7.80;;;11.00;59.00;;;;;;6337819;22;20418;-75
2022/11/14 01:46:11;;;;;;;;;;;11.00;59.10;;;;;;6338357;22;20010;-75
2022/11/14 01:48:42;;;;;;;11.43;7.80;;;11.00;58.90;;;;;;6337480;22;19926;-74
2022/11/14 01:51:14;;;;;;;10.68;7.32;;;11.00;59.10;;;;;;6337420;22;19999;-74
2022/11/14 01:53:41;;;;;;;11.55;7.95;;;11.00;59.20;;;;;;6310328;22;20034;-75
2022/11/14 01:56:10;;;;;;;12.30;7.75;;;11.00;59.20;;;;;;6310112;22;19999;-75
2022/11/14 01:58:39;;;;;;;12.10;8.02;;;11.00;59.30;;;;;;6337502;22;20304;-74
2022/11/14 02:01:05;;;;;;;22.20;12.65;;;10.90;59.30;;;;;;6337751;22;20006;-74
2022/11/14 02:03:32;;;;;;;33.88;16.95;;;10.90;59.30;;;;;;6337335;22;20010;-75
2022/11/14 02:06:00;;;;;;;25.55;14.38;;;10.90;59.30;;;;;;6337840;22;20087;-74
2022/11/14 02:08:25;;;;;;;15.95;10.73;;;10.90;59.40;;;;;;6337437;22;20311;-74
2022/11/14 02:10:51;;;;;;;14.48;9.70;;;10.80;59.50;;;;;;6309497;22;20009;-74
2022/11/14 02:13:17;;;;;;;10.45;7.40;;;10.80;59.50;;;;;;6309907;22;20006;-74
2022/11/14 02:15:43;;;;;;;14.70;9.32;;;10.80;59.50;;;;;;6337409;22;19998;-74
2022/11/14 02:18:09;;;;;;;15.52;10.20;;;10.80;59.70;;;;;;6337793;22;20478;-75
2022/11/14 02:20:42;;;;;;;14.07;9.50;;;10.70;59.80;;;;;;6336339;22;20327;-74
2022/11/14 02:23:09;;;;;;;12.63;8.82;;;10.60;59.80;;;;;;6337279;22;20539;-74
2022/11/14 02:25:37;;;;;;;17.25;10.77;;;10.60;59.80;;;;;;6337201;22;20383;-74
2022/11/14 02:28:04;;;;;;;13.90;10.27;;;10.60;60.00;;;;;;6309616;22;20017;-74
2022/11/14 02:30:30;;;;;;;19.05;11.13;;;10.60;60.20;;;;;;6336900;22;19994;-75
2022/11/14 02:32:56;;;;;;;19.23;11.10;;;10.50;60.20;;;;;;6309727;22;20060;-74
2022/11/14 02:35:22;;;;;;;15.32;9.65;;;10.60;60.30;;;;;;6337323;22;19999;-74
2022/11/14 02:37:47;;;;;;;15.82;10.20;;;10.50;60.20;;;;;;6336736;22;20346;-74
2022/11/14 02:40:13;;;;;;;13.45;9.55;;;10.50;60.30;;;;;;6309006;22;20014;-74
2022/11/14 02:42:39;;;;;;;18.35;10.35;;;10.50;60.40;;;;;;6336862;22;19999;-74
2022/11/14 02:45:06;;;;;;;16.92;11.43;;;10.40;60.50;;;;;;6309674;22;20006;-74
2022/11/14 02:47:32;;;;;;;15.43;9.55;;;10.40;60.60;;;;;;6337130;22;20049;-74
2022/11/14 02:49:57;;;;;;;21.98;10.50;;;10.30;60.50;;;;;;6337349;22;20001;-74
2022/11/14 02:52:23;;;;;;;19.33;12.63;;;10.30;60.60;;;;;;6337342;22;20212;-74
2022/11/14 02:54:49;;;;;;;19.20;12.60;;;10.30;60.80;;;;;;6336930;22;20441;-75
2022/11/14 02:57:14;;;;;;;17.90;11.30;;;10.30;61.00;;;;;;6337212;22;19991;-75
2022/11/14 02:59:40;;;;;;;17.65;11.48;;;10.30;61.10;;;;;;6309469;22;20009;-75
2022/11/14 03:02:06;;;;;;;17.70;10.32;;;10.20;61.10;;;;;;6336710;22;20003;-74
2022/11/14 03:04:32;;;;;;;14.80;10.18;;;10.20;61.10;;;;;;6336952;22;19995;-74
2022/11/14 03:06:57;;;;;;;17.30;10.35;;;10.20;61.30;;;;;;6336880;22;20313;-74
2022/11/14 03:09:23;;;;;;;16.00;10.30;;;10.20;61.40;;;;;;6337135;22;20107;-75
2022/11/14 03:11:49;;;;;;;18.10;10.95;;;10.20;61.50;;;;;;6336986;22;20044;-74
2022/11/14 03:14:14;;;;;;;19.38;12.00;;;10.20;61.60;;;;;;6336849;22;20072;-74
2022/11/14 03:16:40;;;;;;;16.88;10.77;;;10.10;61.70;;;;;;6336343;22;19999;-75
2022/11/14 03:19:06;;;;;;;18.73;10.23;;;10.10;61.70;;;;;;6308301;22;20015;-75
2022/11/14 03:21:32;;;;;;;17.08;10.75;;;10.20;61.80;;;;;;6335352;22;20034;-74
2022/11/14 03:23:57;;;;;;;17.92;9.88;;;10.10;62.00;;;;;;6336541;22;19995;-74
2022/11/14 03:26:23;;;;;;;15.77;9.73;;;10.10;61.90;;;;;;6336705;22;20334;-74
2022/11/14 03:28:49;;;;;;;13.82;9.48;;;10.10;61.90;;;;;;6308899;22;20461;-75
2022/11/14 03:31:15;;;;;;;15.95;10.20;;;10.10;62.10;;;;;;6336542;22;19999;-74
2022/11/14 03:33:41;;;;;;;13.80;9.65;;;10.10;62.30;;;;;;6337049;22;20051;-73
2022/11/14 03:36:07;;;;;;;13.13;9.00;;;10.10;62.50;;;;;;6336772;22;19999;-74
2022/11/14 03:38:33;;;;;;;15.90;9.07;;;10.10;62.60;;;;;;6308934;22;20007;-74
2022/11/14 03:41:00;;;;;;;12.85;8.30;;;10.10;62.50;;;;;;6308457;22;20034;-74
2022/11/14 03:43:29;;;;;;;12.07;7.88;;;10.10;62.50;;;;;;6336710;22;20005;-74
2022/11/14 03:45:57;;;;;;;10.52;6.10;;;10.10;62.40;;;;;;6336777;22;20003;-74
2022/11/14 03:48:23;;;;;;;10.77;7.38;;;10.10;62.20;;;;;;6308895;22;20403;-74
2022/11/14 03:50:49;;;;;;;10.05;7.40;;;10.10;62.30;;;;;;6336850;22;20052;-74
2022/11/14 03:53:15;;;;;;;10.07;6.78;;;10.10;62.30;;;;;;6308977;22;20477;-75
2022/11/14 03:55:42;;;;;;;9.18;6.53;;;10.10;62.20;;;;;;6308887;22;20003;-74
2022/11/14 03:58:08;;;;;;;10.60;6.70;;;10.10;62.20;;;;;;6336601;22;19999;-73
2022/11/14 04:00:34;;;;;;;9.02;6.00;;;10.10;62.20;;;;;;6336595;22;20003;-74
2022/11/14 04:03:00;;;;;;;8.00;6.07;;;10.10;62.20;;;;;;6336449;22;20003;-74
2022/11/14 04:05:25;;;;;;;10.20;6.40;;;10.10;62.10;;;;;;6336262;22;20009;-74
2022/11/14 04:07:51;;;;;;;11.02;5.88;;;10.00;62.00;;;;;;6336621;22;20030;-74
2022/11/14 04:10:17;;;;;;;8.02;6.03;;;10.00;62.00;;;;;;6336392;22;20002;-74
2022/11/14 04:12:53;;;;;;;8.90;6.00;;;10.00;62.10;;;;;;6335576;22;20007;-75
2022/11/14 04:15:19;;;;;;;9.80;6.65;;;10.00;62.20;;;;;;6335561;22;19999;-74
2022/11/14 04:17:45;;;;;;;10.70;7.55;;;10.00;62.20;;;;;;6307767;22;20014;-74
2022/11/14 04:20:12;;;;;;;10.02;7.03;;;10.00;62.60;;;;;;6336200;22;20015;-74
2022/11/14 04:22:39;;;;;;;11.40;7.70;;;10.00;62.80;;;;;;6336384;22;20014;-74
2022/11/14 04:25:06;;;;;;;10.02;7.07;;;10.00;63.00;;;;;;6308669;22;20011;-75
2022/11/14 04:27:32;;;;;;;13.70;9.45;;;10.00;63.10;;;;;;6336521;22;19999;-74
2022/11/14 04:29:59;;;;;;;11.95;8.32;;;10.00;63.50;;;;;;6308670;22;20104;-74
2022/11/14 04:32:24;;;;;;;10.02;6.97;;;10.10;63.50;;;;;;6336291;22;19991;-74
2022/11/14 04:34:50;;;;;;;10.43;7.25;;;10.10;63.40;;;;;;6336485;22;20006;-74
2022/11/14 04:37:16;;;;;;;11.95;7.40;;;10.10;63.10;;;;;;6336388;22;19995;-74
2022/11/14 04:39:41;;;;;;;9.57;6.80;;;10.20;63.30;;;;;;6308819;22;20338;-73
2022/11/14 04:42:07;;;;;;;9.90;6.65;;;10.20;63.10;;;;;;6336241;22;19998;-73
2022/11/14 04:44:33;;;;;;;9.18;6.22;;;10.20;62.90;;;;;;6310467;22;20011;-74
2022/11/14 04:46:59;;;;;;;10.55;6.85;;;10.20;62.80;;;;;;6338230;22;20090;-74
2022/11/14 04:49:24;;;;;;;9.32;6.68;;;10.20;62.70;;;;;;6338067;22;19998;-74
2022/11/14 04:51:50;;;;;;;8.32;6.05;;;10.20;62.70;;;;;;6338247;22;20048;-74
2022/11/14 04:54:16;;;;;;;10.02;6.35;;;10.20;62.60;;;;;;6338422;22;20026;-74
2022/11/14 04:56:42;;;;;;;9.20;6.30;;;10.20;62.60;;;;;;6310527;22;20014;-74
2022/11/14 04:59:07;;;;;;;12.63;8.10;;;10.20;62.60;;;;;;6310360;22;19999;-74
2022/11/14 05:01:33;;;;;;;13.82;8.55;;;10.20;62.80;;;;;;6310879;22;20002;-75
2022/11/14 05:03:59;;;;;;;15.30;9.27;;;10.20;62.90;;;;;;6310387;22;19999;-74
2022/11/14 05:06:25;;;;;;;15.13;9.43;;;10.20;63.10;;;;;;6338119;22;20329;-74
2022/11/14 05:08:50;;;;;;;18.30;10.43;;;10.20;63.00;;;;;;6338187;22;20334;-74
2022/11/14 05:11:18;;;;;;;22.45;11.05;;;10.20;63.00;;;;;;6337789;22;20010;-74
2022/11/14 05:13:45;;;;;;;29.65;14.38;;;10.20;63.00;;;;;;6310344;22;20033;-73
2022/11/14 05:16:11;;;;;;;28.83;14.38;;;10.20;63.10;;;;;;6338027;22;19994;-74
2022/11/14 05:18:38;;;;;;;31.65;15.23;;;10.20;63.20;;;;;;6309828;22;20014;-74
2022/11/14 05:21:04;;;;;;;31.48;14.88;;;10.20;63.30;;;;;;6337920;22;20022;-73
2022/11/14 05:23:30;;;;;;;30.52;15.00;;;10.20;63.50;;;;;;6310521;22;20003;-74
2022/11/14 05:26:03;;;;;;;28.35;15.60;;;10.20;63.60;;;;;;6337942;22;20030;-74
2022/11/14 05:28:29;;;;;;;25.92;13.82;;;10.20;63.60;;;;;;6337580;22;20393;-74
2022/11/14 05:31:04;;;;;;;23.90;12.80;;;10.20;63.40;;;;;;6337727;22;19999;-74
2022/11/14 05:33:30;;;;;;;31.20;15.15;;;10.20;63.40;;;;;;6337688;22;20390;-74
2022/11/14 05:36:00;;;;;;;29.02;15.18;;;10.20;63.50;;;;;;6337856;22;20112;-73
2022/11/14 05:38:26;;;;;;;27.88;14.32;;;10.20;63.60;;;;;;6338157;22;19995;-74
2022/11/14 05:40:51;;;;;;;27.58;15.48;;;10.20;63.60;;;;;;6337595;22;20334;-73
2022/11/14 05:43:17;;;;;;;29.95;15.48;;;10.20;63.80;;;;;;6310390;22;20002;-74
2022/11/14 05:45:43;;;;;;;29.25;15.55;;;10.20;63.80;;;;;;6338563;22;20003;-73
2022/11/14 05:48:08;;;;;;;28.33;14.50;;;10.20;64.00;;;;;;6337578;22;19999;-73
2022/11/14 05:50:34;;;;;;;26.55;14.18;;;10.10;63.90;;;;;;6310248;22;20515;-73
2022/11/14 05:53:00;;;;;;;32.28;15.77;;;10.10;63.80;;;;;;6337896;22;20468;-73
2022/11/14 05:55:25;;;;;;;24.42;13.90;;;10.10;63.90;;;;;;6337312;22;20330;-74
2022/11/14 05:57:51;;;;;;;26.33;13.85;;;10.10;63.80;;;;;;6309966;22;20002;-74
2022/11/14 06:00:17;;;;;;;24.42;13.32;;;10.10;63.70;;;;;;6337523;22;20002;-74
2022/11/14 06:02:44;;;;;;;28.75;12.57;;;10.10;63.60;;;;;;6338075;22;20074;-75
2022/11/14 06:05:10;;;;;;;24.88;13.85;;;10.00;63.50;;;;;;6338024;22;20002;-75
2022/11/14 06:07:37;;;;;;;24.92;14.50;;;10.00;63.50;;;;;;6337711;22;20006;-75
2022/11/14 06:10:04;;;;;;;25.13;14.05;;;10.00;63.60;;;;;;6310031;22;19998;-75
2022/11/14 06:12:31;;;;;;;30.35;14.50;;;10.00;63.90;;;;;;6338368;22;19990;-75
2022/11/14 06:14:57;;;;;;;30.55;15.68;;;10.00;63.90;;;;;;6310174;22;20030;-75
2022/11/14 06:17:22;;;;;;;26.08;13.55;;;9.90;64.00;;;;;;6337926;22;20445;-75
2022/11/14 06:19:48;;;;;;;23.38;13.40;;;9.90;64.00;;;;;;6309626;22;20464;-74
2022/11/14 06:22:14;;;;;;;28.35;14.70;;;9.90;64.00;;;;;;6337678;22;20343;-74
2022/11/14 06:24:39;;;;;;;33.03;15.18;;;9.90;64.20;;;;;;6338023;22;20327;-75
2022/11/14 06:27:05;;;;;;;29.30;13.32;;;9.90;64.30;;;;;;6337409;22;20003;-74
2022/11/14 06:29:31;;;;;;;24.95;12.75;;;9.90;64.30;;;;;;6337645;22;20433;-74
2022/11/14 06:31:57;;;;;;;24.98;12.18;;;9.90;64.40;;;;;;6337437;22;19999;-73
2022/11/14 06:34:22;;;;;;;24.90;12.98;;;9.90;64.40;;;;;;6337142;22;19995;-73
2022/11/14 06:36:48;;;;;;;28.58;12.73;;;9.90;64.60;;;;;;6337320;22;19995;-74
2022/11/14 06:39:17;;;;;;;24.58;13.73;;;9.90;64.60;;;;;;6337244;22;20006;-74
2022/11/14 06:41:42;;;;;;;29.30;14.63;;;9.90;64.70;;;;;;6337029;22;20436;-73
2022/11/14 06:44:08;;;;;;;27.58;16.15;;;9.90;64.80;;;;;;6337416;22;20022;-74
2022/11/14 06:46:34;;;;;;;24.08;12.82;;;10.00;65.10;;;;;;6336778;22;20061;-74
2022/11/14 06:49:00;;;;;;;23.45;12.10;;;10.00;65.20;;;;;;6310071;22;20006;-75
2022/11/14 06:51:25;;;;;;;25.35;13.23;;;10.10;65.10;;;;;;6337385;22;20053;-74
2022/11/14 06:53:51;;;;;;;26.40;14.13;;;10.10;65.10;;;;;;6337683;22;20304;-74
2022/11/14 06:56:19;;;;;;;26.55;15.23;;;10.10;65.00;;;;;;6337323;22;20002;-73
2022/11/14 06:58:47;;;;;;;24.42;13.52;;;10.20;65.00;;;;;;6337500;22;20630;-74
2022/11/14 07:01:18;;;;;;;21.10;12.80;;;10.30;65.00;;;;;;6337412;22;20422;-74
2022/11/14 07:03:45;;;;;;;23.27;12.27;;;10.40;64.90;;;;;;6309663;22;20006;-74
2022/11/14 07:06:13;;;;;;;21.17;12.40;;;10.40;64.80;;;;;;6336856;22;19999;-74
2022/11/14 07:08:39;;;;;;;19.15;11.07;;;10.50;64.70;;;;;;6337130;22;20009;-74
2022/11/14 07:11:08;;;;;;;19.33;11.57;;;10.60;64.70;;;;;;6337032;22;20081;-75
2022/11/14 07:13:35;;;;;;;21.02;12.60;;;10.60;64.50;;;;;;6337212;22;20058;-74
2022/11/14 07:16:01;;;;;;;24.33;12.40;;;10.70;64.50;;;;;;6337455;22;20066;-76
2022/11/14 07:18:32;;;;;;;23.88;13.60;;;10.80;64.40;;;;;;6309507;22;20003;-75
2022/11/14 07:21:04;;;;;;;24.83;14.35;;;10.80;64.30;;;;;;6336979;22;20015;-75
2022/11/14 07:23:31;;;;;;;23.48;15.00;;;10.90;64.20;;;;;;6337372;22;19999;-74
2022/11/14 07:26:08;;;;;;;26.98;16.15;;;10.90;64.10;;;;;;6337036;22;20019;-75
2022/11/14 07:28:35;;;;;;;26.73;15.00;;;11.00;64.00;;;;;;6336812;22;20010;-75
2022/11/14 07:31:06;;;;;;;25.77;15.57;;;11.10;63.90;;;;;;6336990;22;20497;-74
2022/11/14 07:33:33;;;;;;;29.52;16.20;;;11.10;63.80;;;;;;6337045;22;20070;-74
2022/11/14 07:35:59;;;;;;;31.67;15.68;;;11.20;63.70;;;;;;6336960;22;20005;-74
2022/11/14 07:38:25;;;;;;;29.23;17.02;;;11.30;63.60;;;;;;6337149;22;20030;-75
2022/11/14 07:40:55;;;;;;;34.35;17.83;;;11.30;63.50;;;;;;6337236;22;19999;-74
2022/11/14 07:43:21;;;;;;;32.33;17.40;;;11.40;63.40;;;;;;6337015;22;19999;-74
2022/11/14 07:45:48;;;;;;;31.33;16.08;;;11.40;63.20;;;;;;6309013;22;20336;-74
2022/11/14 07:48:13;;;;;;;37.88;19.98;;;11.50;63.20;;;;;;6336927;22;20002;-75
2022/11/14 07:50:39;;;;;;;37.17;20.33;;;11.60;63.10;;;;;;6336786;22;20014;-74
2022/11/14 07:53:05;;;;;;;33.10;17.88;;;11.60;62.80;;;;;;6309418;22;19991;-74
2022/11/14 07:55:31;;;;;;;31.65;17.20;;;11.70;62.80;;;;;;6336705;22;20055;-74
2022/11/14 07:57:58;;;;;;;42.22;20.08;;;11.80;62.80;;;;;;6336807;22;20062;-74
2022/11/14 08:00:24;;;;;;;34.30;20.10;;;11.80;62.60;;;;;;6336836;22;19999;-75
2022/11/14 08:02:50;;;;;;;40.00;21.15;;;11.90;62.50;;;;;;6336781;22;20056;-74
2022/11/14 08:05:17;;;;;;;33.28;19.55;;;11.90;62.40;;;;;;6309131;22;20029;-75
2022/11/14 08:07:43;;;;;;;41.78;20.48;;;12.00;62.30;;;;;;6336720;22;20010;-75
2022/11/14 08:10:10;;;;;;;37.10;18.48;;;12.10;62.00;;;;;;6308829;22;20071;-75
2022/11/14 08:12:40;;;;;;;35.75;17.85;;;12.20;61.90;;;;;;6336703;22;20006;-75
2022/11/14 08:15:07;;;;;;;32.38;16.80;;;12.20;61.80;;;;;;6309163;22;20084;-74
2022/11/14 08:17:34;;;;;;;28.42;15.07;;;12.30;61.70;;;;;;6336724;22;20077;-74
2022/11/14 08:19:59;;;;;;;25.05;14.13;;;12.40;61.50;;;;;;6308834;22;20018;-74
2022/11/14 08:22:25;;;;;;;28.30;15.52;;;12.50;61.50;;;;;;6336904;22;20052;-74
2022/11/14 08:24:51;;;;;;;23.75;14.68;;;12.50;61.20;;;;;;6336930;22;20010;-74
2022/11/14 08:27:17;;;;;;;27.13;13.25;;;12.60;61.00;;;;;;6336991;22;20030;-74
2022/11/14 08:29:43;;;;;;;28.50;14.35;;;12.70;60.80;;;;;;6336600;22;20103;-74
2022/11/14 08:32:09;;;;;;;27.92;12.85;;;12.70;60.30;;;;;;6309055;22;20061;-74
2022/11/14 08:34:35;;;;;;;19.48;12.55;;;12.80;60.20;;;;;;6309083;22;20319;-74
2022/11/14 08:37:01;;;;;;;23.88;12.77;;;12.90;60.40;;;;;;6337080;22;20453;-75
2022/11/14 08:39:27;;;;;;;23.90;13.18;;;13.00;60.30;;;;;;6336888;22;20014;-74
2022/11/14 08:41:53;;;;;;;26.52;13.05;;;13.00;60.00;;;;;;6336989;22;20422;-74
2022/11/14 08:44:19;;;;;;;20.75;11.38;;;13.10;59.60;;;;;;6336733;22;20006;-75
2022/11/14 08:46:45;;;;;;;18.00;10.15;;;13.20;59.60;;;;;;6336689;22;20449;-75
2022/11/14 08:49:11;;;;;;;22.75;12.75;;;13.20;59.60;;;;;;6336860;22;20033;-74
2022/11/14 08:51:36;;;;;;;20.67;12.25;;;13.30;59.50;;;;;;6336801;22;20022;-74
2022/11/14 08:54:02;;;;;;;20.02;11.98;;;13.30;59.30;;;;;;6309283;22;20087;-74
2022/11/14 08:56:28;;;;;;;17.42;11.43;;;13.40;59.30;;;;;;6336596;22;20022;-74
2022/11/14 08:58:54;;;;;;;16.25;9.98;;;13.50;59.20;;;;;;6308839;22;20507;-74
2022/11/14 09:01:20;;;;;;;15.63;9.45;;;13.50;59.20;;;;;;6336649;22;20025;-75
2022/11/14 09:03:45;;;;;;;16.42;10.07;;;13.60;59.10;;;;;;6336550;22;20397;-73
2022/11/14 09:06:11;;;;;;;18.05;9.75;;;13.70;59.20;;;;;;6336607;22;20421;-75
2022/11/14 09:08:37;;;;;;;20.88;9.75;;;13.80;59.20;;;;;;6336728;22;20003;-75
2022/11/14 09:11:05;;;;;;;13.18;8.43;;;13.90;58.90;;;;;;6308948;22;20046;-74
2022/11/14 09:13:33;;;;;;;15.15;8.90;;;14.00;58.70;;;;;;6336425;22;19995;-75
2022/11/14 09:15:59;;;;;;;15.35;9.05;;;14.00;58.50;;;;;;6336526;22;20025;-75
2022/11/14 09:18:25;;;;;;;13.65;8.55;;;14.10;58.30;;;;;;6336440;22;20003;-75
2022/11/14 09:20:51;;;;;;;15.43;9.32;;;14.20;58.20;;;;;;6308649;22;20128;-75
2022/11/14 09:23:16;;;;;;;13.75;9.10;;;14.30;57.40;;;;;;6336582;22;20070;-74
2022/11/14 09:25:42;;;;;;;13.18;8.13;;;14.40;57.20;;;;;;6308766;22;20490;-74
2022/11/14 09:28:08;;;;;;;12.55;7.38;;;14.40;57.00;;;;;;6336341;22;19999;-74
2022/11/14 09:30:36;;;;;;;14.20;8.00;;;14.50;56.90;;;;;;6310541;22;20034;-75
2022/11/14 09:33:03;;;;;;;10.93;7.55;;;14.50;56.40;;;;;;6310474;22;19998;-75
2022/11/14 09:35:30;;;;;;;14.00;8.73;;;14.60;56.70;;;;;;6338326;22;19999;-74
2022/11/14 09:38:01;;;;;;;12.80;7.10;;;14.60;56.50;;;;;;6338300;22;20029;-75
2022/11/14 09:40:27;;;;;;;10.63;6.50;;;14.60;56.50;;;;;;6338110;22;20037;-75
2022/11/14 09:43:17;;;;;;;17.20;7.15;;;14.70;56.60;;;;;;6338066;22;20003;-74
2022/11/14 09:45:48;;;;;;;11.52;6.82;;;14.80;56.40;;;;;;6338421;22;19994;-75
2022/11/14 09:48:24;;;;;;;11.05;6.63;;;14.80;56.10;;;;;;6338280;22;20003;-74
2022/11/14 09:51:12;;;;;;;11.40;6.68;;;14.90;55.90;;;;;;6310630;22;20007;-74
2022/11/14 09:53:46;;;;;;;9.50;5.63;;;15.00;55.60;;;;;;6310502;22;20026;-74
2022/11/14 09:56:17;;;;;;;8.90;6.15;;;15.00;55.40;;;;;;6337907;22;20044;-75
2022/11/14 09:58:43;;;;;;;8.10;5.68;;;15.10;55.10;;;;;;6338294;22;20007;-74
2022/11/14 10:01:27;;;;;;;7.78;5.20;;;15.10;54.90;;;;;;6338101;22;20070;-75
2022/11/14 10:04:03;;;;;;;12.20;5.60;;;15.20;54.90;;;;;;6338130;22;20012;-75
2022/11/14 10:06:31;;;;;;;7.50;5.50;;;15.30;54.60;;;;;;6337954;22;19999;-74
2022/11/14 10:09:18;;;;;;;13.55;5.70;;;15.30;54.50;;;;;;6337719;22;20426;-74
2022/11/14 10:11:48;;;;;;;6.90;4.97;;;15.30;53.90;;;;;;6337899;22;19999;-75
2022/11/14 10:14:35;;;;;;;8.60;5.65;;;15.30;53.50;;;;;;6310874;22;20083;-75
2022/11/14 10:17:04;;;;;;;7.78;5.40;;;15.40;53.40;;;;;;6310776;22;20338;-74
2022/11/14 10:19:43;;;;;;;7.28;4.57;;;15.50;53.30;;;;;;6337603;22;20091;-75
2022/11/14 10:22:14;;;;;;;8.63;5.20;;;15.60;53.00;;;;;;6337843;22;20009;-74
2022/11/14 10:25:05;;;;;;;8.77;5.53;;;15.60;52.60;;;;;;6310117;22;20018;-75
2022/11/14 10:27:41;;;;;;;10.13;4.93;;;15.70;52.50;;;;;;6337843;22;20354;-75
2022/11/14 10:30:18;;;;;;;8.68;5.63;;;15.80;52.50;;;;;;6310530;22;20003;-74
2022/11/14 10:33:30;;;;;;;7.53;5.88;;;15.90;52.00;;;;;;6337481;22;20005;-75
2022/11/14 10:36:45;;;;;;;7.40;4.45;;;15.90;51.60;;;;;;6308334;22;20038;-74
2022/11/14 10:39:27;;;;;;;7.60;4.70;;;16.00;51.40;;;;;;6302542;22;20011;-75
2022/11/14 10:41:58;;;;;;;6.30;4.60;;;16.00;51.30;;;;;;6336991;22;20002;-75
2022/11/14 10:44:33;;;;;;;6.85;5.40;;;16.10;51.10;;;;;;6337397;22;19999;-74
2022/11/14 10:47:09;;;;;;;6.45;4.55;;;16.10;50.90;;;;;;6337726;22;19998;-74
2022/11/14 10:49:37;;;;;;;7.88;4.55;;;16.20;50.80;;;;;;6337451;22;20449;-75
2022/11/14 10:52:08;;;;;;;6.28;4.68;;;16.30;50.90;;;;;;6337528;22;20040;-75
2022/11/14 10:54:43;;;;;;;7.00;4.70;;;16.40;50.60;;;;;;6337830;22;19999;-75
2022/11/14 10:57:20;;;;;;;15.30;4.97;;;16.60;50.50;;;;;;6337285;22;19999;-75
2022/11/14 10:59:46;;;;;;;8.70;4.80;;;16.70;50.20;;;;;;6309842;22;20013;-75
2022/11/14 11:02:12;;;;;;;6.07;4.47;;;16.80;49.70;;;;;;6337625;22;20026;-75
2022/11/14 11:04:40;;;;;;;5.43;4.32;;;16.80;49.50;;;;;;6337327;22;20026;-74
2022/11/14 11:07:06;;;;;;;6.10;4.20;;;16.90;49.40;;;;;;6337519;22;20003;-74
2022/11/14 11:12:22;;;;;;;6.65;4.80;;;17.00;49.10;;;;;;6337679;22;20006;-75
2022/11/14 11:15:06;;;;;;;5.97;4.55;;;17.20;49.00;;;;;;6337428;22;19999;-75
2022/11/14 11:17:32;;;;;;;4.72;3.53;;;17.20;48.30;;;;;;6337451;22;19991;-75
2022/11/14 11:20:36;;;;;;;6.75;4.05;;;17.30;48.60;;;;;;6309771;22;20102;-76
2022/11/14 11:23:05;;;;;;;5.05;4.25;;;17.30;48.60;;;;;;6181197;23;20155;-75
2022/11/14 11:25:32;;;;;;;6.55;3.90;;;17.50;48.30;;;;;;6156237;23;20111;-75
2022/11/14 11:28:11;;;;;;;9.02;4.07;;;17.50;48.10;;;;;;6181168;23;20054;-75
2022/11/14 11:30:37;;;;;;;4.60;3.80;;;17.50;48.10;;;;;;6181081;23;20035;-77
2022/11/14 11:33:28;;;;;;;5.15;3.80;;;17.60;48.30;;;;;;6156088;23;20065;-76
2022/11/14 11:36:05;;;;;;;5.68;3.80;;;17.60;48.70;;;;;;6145320;23;20322;-77
2022/11/14 11:38:32;;;;;;;4.47;3.63;;;17.60;48.80;;;;;;6182423;23;20028;-76
2022/11/14 11:41:23;;;;;;;7.07;3.83;;;17.70;49.10;;;;;;6182702;23;20032;-77
2022/11/14 11:44:01;;;;;;;4.25;2.80;;;17.60;48.50;;;;;;6182830;23;20005;-77
2022/11/14 11:46:52;;;;;;;4.35;3.17;;;17.70;49.20;;;;;;6182527;23;20009;-76
2022/11/14 11:49:29;;;;;;;4.50;3.47;;;17.70;49.30;;;;;;6182372;23;20032;-76
2022/11/14 11:51:59;;;;;;;11.30;3.65;;;17.70;49.20;;;;;;6182520;23;20020;-75
2022/11/14 11:54:48;;;;;;;5.68;3.53;;;17.70;48.80;;;;;;6182210;23;20072;-74
2022/11/14 11:57:17;;;;;;;4.28;3.47;;;17.80;48.90;;;;;;6182835;23;20004;-74
2022/11/14 11:59:48;;;;;;;4.50;3.47;;;17.90;47.90;;;;;;6337109;22;20007;-75
2022/11/14 12:02:26;;;;;;;3.03;2.60;;;18.10;48.30;;;;;;6338718;22;20057;-76
2022/11/14 12:04:56;;;;;;;4.30;3.45;;;18.20;48.00;;;;;;6337566;22;20003;-74
2022/11/14 12:07:43;;;;;;;4.47;3.15;;;18.40;46.90;;;;;;6337774;22;20006;-75
2022/11/14 12:10:29;;;;;;;7.03;2.90;;;18.50;46.90;;;;;;6338489;22;19995;-75
2022/11/14 12:13:25;;;;;;;5.60;3.05;;;18.60;46.40;;;;;;6338129;22;20009;-75
2022/11/14 12:16:09;;;;;;;3.80;3.05;;;18.70;45.90;;;;;;6310881;22;20089;-74
2022/11/14 12:18:48;;;;;;;;;;;18.70;45.40;;;;;;6338869;22;19995;-75
2022/11/14 12:21:33;;;;;;;4.32;2.90;;;18.70;47.20;;;;;;6310594;22;19954;-76
2022/11/14 12:24:14;;;;;;;6.53;2.70;;;18.70;45.40;;;;;;6338169;22;20326;-75
2022/11/14 12:27:17;;;;;;;5.00;3.30;;;18.70;45.80;;;;;;6338154;22;20065;-75
2022/11/14 12:30:12;;;;;;;3.75;2.63;;;18.80;45.80;;;;;;6259316;22;20330;-76
2022/11/14 12:32:49;;;;;;;4.03;2.55;;;18.80;45.80;;;;;;6334935;22;19995;-75
2022/11/14 12:35:25;;;;;;;4.00;2.90;;;18.90;45.50;;;;;;6307257;22;20383;-75
2022/11/14 12:37:53;;;;;;;5.93;2.40;;;18.90;45.30;;;;;;6307276;22;20011;-75
2022/11/14 12:40:27;;;;;;;4.43;2.63;;;19.00;45.40;;;;;;6308621;22;20423;-75
2022/11/14 12:42:55;;;;;;;4.50;2.90;;;19.00;45.30;;;;;;6336372;22;19998;-75
2022/11/14 12:45:39;;;;;;;4.13;2.65;;;19.00;45.00;;;;;;6308589;22;20060;-74
2022/11/14 12:48:26;;;;;;;4.70;2.60;;;19.00;44.90;;;;;;6337558;22;20389;-75
2022/11/14 12:50:53;;;;;;;5.32;2.70;;;19.00;44.80;;;;;;6337956;22;20418;-75